sensor_id;sensor_type;location;lat;lon;timestamp;pressure;altitude;pressure_sealevel;temperature;humidity
38530;BME280;24301;54.332;48.386;2023-03-16T00:00:55;99743.59;;;1.27;58.49
38530;BME280;24301;54.332;48.386;2023-03-16T00:03:21;99743.47;;;1.24;58.70
38530;BME280;24301;54.332;48.386;2023-03-16T00:05:52;99740.25;;;1.31;58.13
38530;BME280;24301;54.332;48.386;2023-03-16T00:08:19;99719.34;;;1.25;58.48
38530;BME280;24301;54.332;48.386;2023-03-16T00:10:46;99743.69;;;1.30;58.42
38530;BME280;24301;54.332;48.386;2023-03-16T00:13:13;99741.00;;;1.27;57.92
38530;BME280;24301;54.332;48.386;2023-03-16T00:15:40;99748.88;;;1.30;57.26
38530;BME280;24301;54.332;48.386;2023-03-16T00:18:06;99720.38;;;1.30;57.85
38530;BME280;24301;54.332;48.386;2023-03-16T00:20:32;99729.69;;;1.25;57.42
38530;BME280;24301;54.332;48.386;2023-03-16T00:22:58;99721.09;;;1.26;58.03
38530;BME280;24301;54.332;48.386;2023-03-16T00:25:25;99710.84;;;1.29;57.39
38530;BME280;24301;54.332;48.386;2023-03-16T00:27:51;99734.97;;;1.28;57.41
38530;BME280;24301;54.332;48.386;2023-03-16T00:30:16;99729.81;;;1.28;57.05
38530;BME280;24301;54.332;48.386;2023-03-16T00:32:42;99738.41;;;1.27;57.22
38530;BME280;24301;54.332;48.386;2023-03-16T00:35:08;99725.44;;;1.27;57.12
38530;BME280;24301;54.332;48.386;2023-03-16T00:37:35;99741.00;;;1.27;57.18
38530;BME280;24301;54.332;48.386;2023-03-16T00:40:02;99721.16;;;1.27;56.75
38530;BME280;24301;54.332;48.386;2023-03-16T00:42:29;99728.94;;;1.27;56.90
38530;BME280;24301;54.332;48.386;2023-03-16T00:44:58;99717.59;;;1.25;56.80
38530;BME280;24301;54.332;48.386;2023-03-16T00:47:33;99724.50;;;1.25;56.92
38530;BME280;24301;54.332;48.386;2023-03-16T00:50:00;99727.00;;;1.22;57.79
38530;BME280;24301;54.332;48.386;2023-03-16T00:52:29;99723.41;;;1.18;57.51
38530;BME280;24301;54.332;48.386;2023-03-16T00:54:56;99720.09;;;1.22;56.91
38530;BME280;24301;54.332;48.386;2023-03-16T00:57:24;99710.63;;;1.23;56.95
38530;BME280;24301;54.332;48.386;2023-03-16T00:59:52;99702.91;;;1.24;57.37
38530;BME280;24301;54.332;48.386;2023-03-16T01:02:18;99710.72;;;1.26;57.07
38530;BME280;24301;54.332;48.386;2023-03-16T01:04:48;99701.28;;;1.26;56.50
38530;BME280;24301;54.332;48.386;2023-03-16T01:07:14;99713.44;;;1.29;56.72
38530;BME280;24301;54.332;48.386;2023-03-16T01:09:41;99703.91;;;1.28;56.53
38530;BME280;24301;54.332;48.386;2023-03-16T01:12:14;99716.22;;;1.35;56.28
38530;BME280;24301;54.332;48.386;2023-03-16T01:14:43;99710.09;;;1.33;56.31
38530;BME280;24301;54.332;48.386;2023-03-16T01:17:10;99703.16;;;1.32;56.70
38530;BME280;24301;54.332;48.386;2023-03-16T01:19:39;99704.66;;;1.25;56.89
38530;BME280;24301;54.332;48.386;2023-03-16T01:22:07;99719.13;;;1.19;57.52
38530;BME280;24301;54.332;48.386;2023-03-16T01:24:34;99719.69;;;1.10;57.52
38530;BME280;24301;54.332;48.386;2023-03-16T01:27:00;99731.69;;;1.08;58.29
38530;BME280;24301;54.332;48.386;2023-03-16T01:29:26;99727.16;;;1.02;59.16
38530;BME280;24301;54.332;48.386;2023-03-16T01:31:55;99723.56;;;0.98;59.46
38530;BME280;24301;54.332;48.386;2023-03-16T01:34:22;99725.19;;;0.95;58.89
38530;BME280;24301;54.332;48.386;2023-03-16T01:36:49;99729.59;;;0.97;59.30
38530;BME280;24301;54.332;48.386;2023-03-16T01:39:24;99709.78;;;0.98;59.63
38530;BME280;24301;54.332;48.386;2023-03-16T01:41:50;99734.00;;;1.00;58.69
38530;BME280;24301;54.332;48.386;2023-03-16T01:44:21;99728.06;;;1.03;58.92
38530;BME280;24301;54.332;48.386;2023-03-16T01:46:49;99733.28;;;1.04;58.50
38530;BME280;24301;54.332;48.386;2023-03-16T01:49:48;99729.00;;;1.05;59.27
38530;BME280;24301;54.332;48.386;2023-03-16T01:52:21;99717.63;;;1.01;58.75
38530;BME280;24301;54.332;48.386;2023-03-16T01:54:49;99721.88;;;0.99;59.49
38530;BME280;24301;54.332;48.386;2023-03-16T01:57:20;99723.47;;;0.95;59.96
38530;BME280;24301;54.332;48.386;2023-03-16T01:59:56;99731.97;;;0.91;60.57
38530;BME280;24301;54.332;48.386;2023-03-16T02:02:47;99728.25;;;0.84;60.72
38530;BME280;24301;54.332;48.386;2023-03-16T02:05:25;99736.00;;;0.83;60.55
38530;BME280;24301;54.332;48.386;2023-03-16T02:07:53;99723.75;;;0.79;61.32
38530;BME280;24301;54.332;48.386;2023-03-16T02:10:24;99742.84;;;0.82;60.58
38530;BME280;24301;54.332;48.386;2023-03-16T02:12:51;99716.81;;;0.78;61.40
38530;BME280;24301;54.332;48.386;2023-03-16T02:15:18;99719.53;;;0.81;61.47
38530;BME280;24301;54.332;48.386;2023-03-16T02:17:45;99720.38;;;0.81;61.25
38530;BME280;24301;54.332;48.386;2023-03-16T02:20:35;99736.00;;;0.83;60.86
38530;BME280;24301;54.332;48.386;2023-03-16T02:23:05;99717.91;;;0.84;61.19
38530;BME280;24301;54.332;48.386;2023-03-16T02:28:41;99716.13;;;0.83;61.49
38530;BME280;24301;54.332;48.386;2023-03-16T02:31:15;99714.34;;;0.81;61.75
38530;BME280;24301;54.332;48.386;2023-03-16T02:33:42;99705.75;;;0.82;61.45
38530;BME280;24301;54.332;48.386;2023-03-16T02:36:09;99714.34;;;0.81;61.08
38530;BME280;24301;54.332;48.386;2023-03-16T02:38:37;99704.03;;;0.82;60.96
38530;BME280;24301;54.332;48.386;2023-03-16T02:41:11;99717.03;;;0.84;60.85
38530;BME280;24301;54.332;48.386;2023-03-16T02:43:41;99716.25;;;0.86;61.15
38530;BME280;24301;54.332;48.386;2023-03-16T02:46:20;99710.13;;;0.84;60.39
38530;BME280;24301;54.332;48.386;2023-03-16T02:48:59;99706.91;;;0.90;60.21
38530;BME280;24301;54.332;48.386;2023-03-16T02:51:28;99720.78;;;0.92;59.95
38530;BME280;24301;54.332;48.386;2023-03-16T02:53:55;99714.84;;;0.95;60.42
38530;BME280;24301;54.332;48.386;2023-03-16T02:56:22;99719.81;;;0.89;59.77
38530;BME280;24301;54.332;48.386;2023-03-16T02:58:49;99718.38;;;0.97;59.93
38530;BME280;24301;54.332;48.386;2023-03-16T03:01:17;99731.34;;;0.98;59.57
38530;BME280;24301;54.332;48.386;2023-03-16T03:03:43;99727.94;;;0.99;59.87
38530;BME280;24301;54.332;48.386;2023-03-16T03:06:09;99711.31;;;0.93;59.43
38530;BME280;24301;54.332;48.386;2023-03-16T03:08:36;99723.72;;;1.02;60.11
38530;BME280;24301;54.332;48.386;2023-03-16T03:11:02;99720.34;;;1.04;59.79
38530;BME280;24301;54.332;48.386;2023-03-16T03:13:28;99721.34;;;1.08;59.60
38530;BME280;24301;54.332;48.386;2023-03-16T03:15:54;99711.75;;;1.05;59.40
38530;BME280;24301;54.332;48.386;2023-03-16T03:18:23;99729.88;;;1.05;59.68
38530;BME280;24301;54.332;48.386;2023-03-16T03:20:50;99710.78;;;1.02;60.51
38530;BME280;24301;54.332;48.386;2023-03-16T03:23:16;99708.97;;;1.00;60.27
38530;BME280;24301;54.332;48.386;2023-03-16T03:25:42;99718.53;;;1.02;59.98
38530;BME280;24301;54.332;48.386;2023-03-16T03:28:08;99716.75;;;1.00;60.33
38530;BME280;24301;54.332;48.386;2023-03-16T03:30:34;99727.28;;;1.05;60.15
38530;BME280;24301;54.332;48.386;2023-03-16T03:33:02;99729.03;;;1.06;59.90
38530;BME280;24301;54.332;48.386;2023-03-16T03:35:28;99734.22;;;1.06;59.80
38530;BME280;24301;54.332;48.386;2023-03-16T03:37:54;99724.69;;;1.05;60.25
38530;BME280;24301;54.332;48.386;2023-03-16T03:40:21;99730.69;;;1.04;60.18
38530;BME280;24301;54.332;48.386;2023-03-16T03:42:54;99735.75;;;1.01;60.08
38530;BME280;24301;54.332;48.386;2023-03-16T03:45:21;99714.41;;;1.07;60.34
38530;BME280;24301;54.332;48.386;2023-03-16T03:47:47;99705.00;;;1.10;59.70
38530;BME280;24301;54.332;48.386;2023-03-16T03:50:18;99721.47;;;1.12;60.36
38530;BME280;24301;54.332;48.386;2023-03-16T03:53:16;99708.44;;;1.09;59.81
38530;BME280;24301;54.332;48.386;2023-03-16T03:56:01;99711.00;;;1.09;60.15
38530;BME280;24301;54.332;48.386;2023-03-16T03:58:27;99714.41;;;1.07;60.54
38530;BME280;24301;54.332;48.386;2023-03-16T04:00:53;99702.28;;;1.06;60.26
38530;BME280;24301;54.332;48.386;2023-03-16T04:03:19;99705.59;;;1.02;61.36
38530;BME280;24301;54.332;48.386;2023-03-16T04:05:46;99691.03;;;1.05;61.42
38530;BME280;24301;54.332;48.386;2023-03-16T04:08:12;99702.38;;;1.09;60.91
38530;BME280;24301;54.332;48.386;2023-03-16T04:10:38;99686.03;;;1.36;61.12
38530;BME280;24301;54.332;48.386;2023-03-16T04:13:04;99683.63;;;1.42;60.27
38530;BME280;24301;54.332;48.386;2023-03-16T04:15:32;99680.03;;;1.38;61.00
38530;BME280;24301;54.332;48.386;2023-03-16T04:18:09;99698.91;;;1.34;60.64
38530;BME280;24301;54.332;48.386;2023-03-16T04:20:35;99688.63;;;1.36;61.23
38530;BME280;24301;54.332;48.386;2023-03-16T04:23:01;99677.41;;;1.37;60.96
38530;BME280;24301;54.332;48.386;2023-03-16T04:25:29;99686.03;;;1.36;60.90
38530;BME280;24301;54.332;48.386;2023-03-16T04:27:56;99684.38;;;1.38;61.28
38530;BME280;24301;54.332;48.386;2023-03-16T04:30:25;99704.31;;;1.40;61.10
38530;BME280;24301;54.332;48.386;2023-03-16T04:32:56;99682.78;;;1.41;61.35
38530;BME280;24301;54.332;48.386;2023-03-16T04:35:22;99688.06;;;1.45;61.19
38530;BME280;24301;54.332;48.386;2023-03-16T04:37:52;99684.09;;;1.56;61.23
38530;BME280;24301;54.332;48.386;2023-03-16T04:40:23;99687.34;;;2.04;60.05
38530;BME280;24301;54.332;48.386;2023-03-16T04:42:57;99688.22;;;2.64;57.86
38530;BME280;24301;54.332;48.386;2023-03-16T04:45:22;99666.38;;;3.90;55.15
38530;BME280;24301;54.332;48.386;2023-03-16T04:47:51;99672.97;;;4.97;52.19
38530;BME280;24301;54.332;48.386;2023-03-16T04:50:17;99667.72;;;4.95;50.58
38530;BME280;24301;54.332;48.386;2023-03-16T04:52:48;99661.69;;;3.75;52.24
38530;BME280;24301;54.332;48.386;2023-03-16T04:55:15;99676.09;;;2.63;55.33
38530;BME280;24301;54.332;48.386;2023-03-16T04:57:41;99675.88;;;1.97;57.00
38530;BME280;24301;54.332;48.386;2023-03-16T05:00:07;99683.53;;;1.65;58.98
38530;BME280;24301;54.332;48.386;2023-03-16T05:02:47;99687.13;;;1.42;59.29
38530;BME280;24301;54.332;48.386;2023-03-16T05:05:13;99677.44;;;1.38;61.33
38530;BME280;24301;54.332;48.386;2023-03-16T05:07:42;99696.72;;;1.72;63.59
38530;BME280;24301;54.332;48.386;2023-03-16T05:10:09;99690.44;;;1.64;61.92
38530;BME280;24301;54.332;48.386;2023-03-16T05:12:37;99685.34;;;1.41;61.96
38530;BME280;24301;54.332;48.386;2023-03-16T05:15:05;99688.09;;;1.46;62.59
38530;BME280;24301;54.332;48.386;2023-03-16T05:17:42;99677.94;;;1.52;62.49
38530;BME280;24301;54.332;48.386;2023-03-16T05:20:12;99676.97;;;2.04;63.57
38530;BME280;24301;54.332;48.386;2023-03-16T05:22:44;99682.31;;;2.10;59.73
38530;BME280;24301;54.332;48.386;2023-03-16T05:25:24;99677.97;;;2.38;58.52
38530;BME280;24301;54.332;48.386;2023-03-16T05:27:52;99689.38;;;2.73;56.96
38530;BME280;24301;54.332;48.386;2023-03-16T05:30:54;99661.13;;;2.84;55.98
38530;BME280;24301;54.332;48.386;2023-03-16T05:33:24;99676.28;;;3.01;55.60
38530;BME280;24301;54.332;48.386;2023-03-16T05:35:56;99693.47;;;2.65;56.14
38530;BME280;24301;54.332;48.386;2023-03-16T05:38:24;99690.22;;;2.42;56.81
38530;BME280;24301;54.332;48.386;2023-03-16T05:40:52;99677.34;;;2.16;57.53
38530;BME280;24301;54.332;48.386;2023-03-16T05:43:41;99681.81;;;2.22;57.44
38530;BME280;24301;54.332;48.386;2023-03-16T05:46:08;99687.56;;;2.11;57.26
38530;BME280;24301;54.332;48.386;2023-03-16T05:48:34;99672.19;;;2.18;57.76
38530;BME280;24301;54.332;48.386;2023-03-16T05:51:01;99673.75;;;2.41;57.28
38530;BME280;24301;54.332;48.386;2023-03-16T05:53:31;99661.47;;;2.07;57.11
38530;BME280;24301;54.332;48.386;2023-03-16T05:56:06;99665.47;;;2.24;57.42
38530;BME280;24301;54.332;48.386;2023-03-16T05:58:34;99686.28;;;2.55;57.13
38530;BME280;24301;54.332;48.386;2023-03-16T06:01:04;99665.22;;;2.76;56.28
38530;BME280;24301;54.332;48.386;2023-03-16T06:03:31;99667.03;;;2.79;56.18
38530;BME280;24301;54.332;48.386;2023-03-16T06:05:59;99666.97;;;3.41;54.60
38530;BME280;24301;54.332;48.386;2023-03-16T06:08:37;99664.88;;;3.28;54.84
38530;BME280;24301;54.332;48.386;2023-03-16T06:11:08;99684.94;;;3.00;56.02
38530;BME280;24301;54.332;48.386;2023-03-16T06:13:35;99679.13;;;2.48;57.42
38530;BME280;24301;54.332;48.386;2023-03-16T06:16:01;99678.53;;;2.27;58.52
38530;BME280;24301;54.332;48.386;2023-03-16T06:18:27;99662.06;;;2.27;58.20
38530;BME280;24301;54.332;48.386;2023-03-16T06:20:53;99667.97;;;2.50;57.96
38530;BME280;24301;54.332;48.386;2023-03-16T06:23:20;99658.19;;;3.04;55.28
38530;BME280;24301;54.332;48.386;2023-03-16T06:25:48;99654.25;;;3.19;55.56
38530;BME280;24301;54.332;48.386;2023-03-16T06:28:15;99641.56;;;3.31;54.17
38530;BME280;24301;54.332;48.386;2023-03-16T06:30:41;99644.63;;;3.16;54.98
38530;BME280;24301;54.332;48.386;2023-03-16T06:33:07;99635.41;;;2.94;56.39
38530;BME280;24301;54.332;48.386;2023-03-16T06:35:33;99640.41;;;2.86;57.19
38530;BME280;24301;54.332;48.386;2023-03-16T06:38:12;99639.25;;;3.08;57.00
38530;BME280;24301;54.332;48.386;2023-03-16T06:40:52;99627.50;;;3.24;57.25
38530;BME280;24301;54.332;48.386;2023-03-16T06:43:19;99638.97;;;3.68;55.87
38530;BME280;24301;54.332;48.386;2023-03-16T06:45:45;99643.91;;;4.34;54.73
38530;BME280;24301;54.332;48.386;2023-03-16T06:48:12;99617.03;;;5.27;52.29
38530;BME280;24301;54.332;48.386;2023-03-16T06:50:38;99615.47;;;6.60;49.27
38530;BME280;24301;54.332;48.386;2023-03-16T06:53:05;99609.16;;;5.79;49.77
38530;BME280;24301;54.332;48.386;2023-03-16T06:55:32;99607.63;;;4.87;51.61
38530;BME280;24301;54.332;48.386;2023-03-16T06:57:59;99617.53;;;4.59;52.62
38530;BME280;24301;54.332;48.386;2023-03-16T07:00:26;99613.59;;;3.96;54.39
38530;BME280;24301;54.332;48.386;2023-03-16T07:02:52;99622.38;;;4.01;54.98
38530;BME280;24301;54.332;48.386;2023-03-16T07:05:19;99613.63;;;3.59;55.79
38530;BME280;24301;54.332;48.386;2023-03-16T07:07:46;99611.59;;;3.45;56.50
38530;BME280;24301;54.332;48.386;2023-03-16T07:10:15;99614.78;;;3.34;56.40
38530;BME280;24301;54.332;48.386;2023-03-16T07:12:42;99607.03;;;3.37;56.88
38530;BME280;24301;54.332;48.386;2023-03-16T07:15:09;99601.19;;;3.45;56.88
38530;BME280;24301;54.332;48.386;2023-03-16T07:17:35;99604.00;;;3.55;55.87
38530;BME280;24301;54.332;48.386;2023-03-16T07:20:06;99598.13;;;4.02;55.23
38530;BME280;24301;54.332;48.386;2023-03-16T07:22:36;99590.44;;;4.07;54.57
38530;BME280;24301;54.332;48.386;2023-03-16T07:25:04;99600.72;;;4.00;55.19
38530;BME280;24301;54.332;48.386;2023-03-16T07:27:30;99594.25;;;5.16;52.49
38530;BME280;24301;54.332;48.386;2023-03-16T07:29:59;99587.41;;;5.22;52.45
38530;BME280;24301;54.332;48.386;2023-03-16T07:32:25;99570.59;;;5.04;52.44
38530;BME280;24301;54.332;48.386;2023-03-16T07:34:51;99594.31;;;5.20;51.88
38530;BME280;24301;54.332;48.386;2023-03-16T07:37:18;99566.25;;;8.35;45.85
38530;BME280;24301;54.332;48.386;2023-03-16T07:39:45;99564.22;;;7.80;45.71
38530;BME280;24301;54.332;48.386;2023-03-16T07:42:17;99570.59;;;7.01;46.28
38530;BME280;24301;54.332;48.386;2023-03-16T07:44:55;99569.44;;;6.70;47.57
38530;BME280;24301;54.332;48.386;2023-03-16T07:47:21;99575.44;;;6.61;47.16
38530;BME280;24301;54.332;48.386;2023-03-16T07:49:48;99576.91;;;6.39;47.40
38530;BME280;24301;54.332;48.386;2023-03-16T07:52:14;99571.78;;;6.45;48.59
38530;BME280;24301;54.332;48.386;2023-03-16T07:54:41;99570.13;;;7.47;47.07
38530;BME280;24301;54.332;48.386;2023-03-16T07:57:09;99570.81;;;9.17;43.11
38530;BME280;24301;54.332;48.386;2023-03-16T07:59:42;99568.00;;;8.39;43.10
38530;BME280;24301;54.332;48.386;2023-03-16T08:02:16;99565.88;;;7.67;44.09
38530;BME280;24301;54.332;48.386;2023-03-16T08:04:43;99560.25;;;7.12;45.53
38530;BME280;24301;54.332;48.386;2023-03-16T08:07:12;99569.16;;;6.45;46.34
38530;BME280;24301;54.332;48.386;2023-03-16T08:09:52;99567.34;;;5.74;48.04
38530;BME280;24301;54.332;48.386;2023-03-16T08:12:23;99564.16;;;4.83;50.25
38530;BME280;24301;54.332;48.386;2023-03-16T08:14:49;99573.97;;;4.51;51.58
38530;BME280;24301;54.332;48.386;2023-03-16T08:17:19;99572.16;;;4.46;51.93
38530;BME280;24301;54.332;48.386;2023-03-16T08:19:47;99574.13;;;4.15;52.81
38530;BME280;24301;54.332;48.386;2023-03-16T08:22:14;99588.66;;;4.06;53.37
38530;BME280;24301;54.332;48.386;2023-03-16T08:24:43;99591.78;;;3.89;53.72
38530;BME280;24301;54.332;48.386;2023-03-16T08:27:10;99571.69;;;4.23;53.78
38530;BME280;24301;54.332;48.386;2023-03-16T08:29:41;99566.25;;;4.55;53.03
38530;BME280;24301;54.332;48.386;2023-03-16T08:32:11;99558.31;;;4.97;51.75
38530;BME280;24301;54.332;48.386;2023-03-16T08:34:41;99556.53;;;4.94;51.20
38530;BME280;24301;54.332;48.386;2023-03-16T08:37:08;99548.47;;;4.80;51.04
38530;BME280;24301;54.332;48.386;2023-03-16T08:39:34;99552.78;;;4.32;52.64
38530;BME280;24301;54.332;48.386;2023-03-16T08:42:04;99553.31;;;4.15;53.19
38530;BME280;24301;54.332;48.386;2023-03-16T08:44:42;99558.28;;;4.05;53.45
38530;BME280;24301;54.332;48.386;2023-03-16T08:47:12;99536.50;;;3.99;54.12
38530;BME280;24301;54.332;48.386;2023-03-16T08:49:42;99527.84;;;4.00;54.05
38530;BME280;24301;54.332;48.386;2023-03-16T08:52:12;99535.38;;;4.29;53.54
38530;BME280;24301;54.332;48.386;2023-03-16T08:54:38;99540.31;;;4.62;52.66
38530;BME280;24301;54.332;48.386;2023-03-16T08:57:06;99528.53;;;4.81;52.44
38530;BME280;24301;54.332;48.386;2023-03-16T08:59:33;99540.75;;;4.86;51.49
38530;BME280;24301;54.332;48.386;2023-03-16T09:01:59;99539.34;;;4.55;51.78
38530;BME280;24301;54.332;48.386;2023-03-16T09:04:26;99535.53;;;4.39;52.88
38530;BME280;24301;54.332;48.386;2023-03-16T09:06:52;99548.16;;;4.19;53.44
38530;BME280;24301;54.332;48.386;2023-03-16T09:09:18;99534.97;;;4.09;53.01
38530;BME280;24301;54.332;48.386;2023-03-16T09:11:44;99524.16;;;4.32;52.91
38530;BME280;24301;54.332;48.386;2023-03-16T09:14:11;99526.03;;;4.39;52.49
38530;BME280;24301;54.332;48.386;2023-03-16T09:16:38;99514.59;;;4.32;52.41
38530;BME280;24301;54.332;48.386;2023-03-16T09:19:04;99520.44;;;4.19;52.77
38530;BME280;24301;54.332;48.386;2023-03-16T09:21:30;99527.88;;;4.02;52.76
38530;BME280;24301;54.332;48.386;2023-03-16T09:23:56;99517.34;;;3.94;52.98
38530;BME280;24301;54.332;48.386;2023-03-16T09:26:22;99528.59;;;3.93;52.76
38530;BME280;24301;54.332;48.386;2023-03-16T09:28:48;99502.69;;;3.99;53.08
38530;BME280;24301;54.332;48.386;2023-03-16T09:31:17;99519.22;;;4.01;53.33
38530;BME280;24301;54.332;48.386;2023-03-16T09:33:43;99513.91;;;3.97;53.13
38530;BME280;24301;54.332;48.386;2023-03-16T09:36:09;99519.03;;;3.92;53.52
38530;BME280;24301;54.332;48.386;2023-03-16T09:38:36;99518.06;;;3.88;53.20
38530;BME280;24301;54.332;48.386;2023-03-16T09:44:30;99514.00;;;4.01;52.55
38530;BME280;24301;54.332;48.386;2023-03-16T09:47:00;99499.72;;;4.25;51.92
38530;BME280;24301;54.332;48.386;2023-03-16T09:49:34;99478.81;;;4.21;52.06
38530;BME280;24301;54.332;48.386;2023-03-16T09:52:42;99527.44;;;3.80;52.59
38530;BME280;24301;54.332;48.386;2023-03-16T09:55:31;99495.78;;;3.60;53.63
38530;BME280;24301;54.332;48.386;2023-03-16T09:57:59;99495.78;;;3.60;53.18
38530;BME280;24301;54.332;48.386;2023-03-16T10:06:01;99440.00;;;3.44;53.21
38530;BME280;24301;54.332;48.386;2023-03-16T10:09:15;99442.88;;;3.56;52.76
38530;BME280;24301;54.332;48.386;2023-03-16T10:11:48;99439.00;;;3.39;53.01
38530;BME280;24301;54.332;48.386;2023-03-16T10:14:22;99468.34;;;3.33;52.94
38530;BME280;24301;54.332;48.386;2023-03-16T10:17:03;99449.53;;;3.43;52.85
38530;BME280;24301;54.332;48.386;2023-03-16T10:22:22;99452.75;;;3.74;51.98
38530;BME280;24301;54.332;48.386;2023-03-16T10:27:43;99450.28;;;3.79;51.36
38530;BME280;24301;54.332;48.386;2023-03-16T10:30:25;99427.81;;;3.84;51.72
38530;BME280;24301;54.332;48.386;2023-03-16T10:32:54;99465.03;;;3.82;51.18
38530;BME280;24301;54.332;48.386;2023-03-16T10:37:58;99439.66;;;3.70;51.30
38530;BME280;24301;54.332;48.386;2023-03-16T10:40:24;99430.09;;;3.69;51.70
38530;BME280;24301;54.332;48.386;2023-03-16T10:42:50;99431.13;;;3.77;51.72
38530;BME280;24301;54.332;48.386;2023-03-16T10:45:28;99418.75;;;3.65;51.15
38530;BME280;24301;54.332;48.386;2023-03-16T10:48:15;99412.47;;;3.54;52.16
38530;BME280;24301;54.332;48.386;2023-03-16T10:50:42;99425.13;;;3.38;52.65
38530;BME280;24301;54.332;48.386;2023-03-16T10:53:28;99428.56;;;3.36;53.18
38530;BME280;24301;54.332;48.386;2023-03-16T10:55:59;99399.22;;;3.41;53.96
38530;BME280;24301;54.332;48.386;2023-03-16T10:58:31;99424.28;;;3.39;54.78
38530;BME280;24301;54.332;48.386;2023-03-16T11:00:58;99432.66;;;3.26;55.16
38530;BME280;24301;54.332;48.386;2023-03-16T11:03:36;99420.53;;;3.25;54.87
38530;BME280;24301;54.332;48.386;2023-03-16T11:06:05;99391.28;;;3.35;55.21
38530;BME280;24301;54.332;48.386;2023-03-16T11:08:38;99401.94;;;3.48;54.45
38530;BME280;24301;54.332;48.386;2023-03-16T11:11:09;99400.44;;;3.59;53.13
38530;BME280;24301;54.332;48.386;2023-03-16T11:13:43;99417.72;;;3.57;53.35
38530;BME280;24301;54.332;48.386;2023-03-16T11:16:38;99402.06;;;3.54;53.49
38530;BME280;24301;54.332;48.386;2023-03-16T11:19:28;99410.78;;;3.56;53.45
38530;BME280;24301;54.332;48.386;2023-03-16T11:22:01;99402.31;;;3.66;52.58
38530;BME280;24301;54.332;48.386;2023-03-16T11:27:29;99392.03;;;3.72;53.06
38530;BME280;24301;54.332;48.386;2023-03-16T11:32:39;99371.19;;;3.69;51.90
38530;BME280;24301;54.332;48.386;2023-03-16T11:35:14;99399.00;;;3.75;52.55
38530;BME280;24301;54.332;48.386;2023-03-16T11:41:02;99389.28;;;3.65;53.22
38530;BME280;24301;54.332;48.386;2023-03-16T11:56:49;99366.09;;;3.76;53.74
38530;BME280;24301;54.332;48.386;2023-03-16T12:10:56;99371.25;;;3.72;54.08
38530;BME280;24301;54.332;48.386;2023-03-16T12:18:59;99349.50;;;3.69;54.59
38530;BME280;24301;54.332;48.386;2023-03-16T12:21:40;99358.88;;;3.61;54.32
38530;BME280;24301;54.332;48.386;2023-03-16T12:24:23;99345.09;;;3.65;54.92
38530;BME280;24301;54.332;48.386;2023-03-16T12:26:52;99340.19;;;3.80;54.61
38530;BME280;24301;54.332;48.386;2023-03-16T12:31:57;99373.06;;;3.77;54.36
38530;BME280;24301;54.332;48.386;2023-03-16T12:34:57;99360.84;;;3.72;55.14
38530;BME280;24301;54.332;48.386;2023-03-16T12:37:44;99379.00;;;3.69;55.20
38530;BME280;24301;54.332;48.386;2023-03-16T12:40:32;99358.94;;;3.65;55.68
38530;BME280;24301;54.332;48.386;2023-03-16T12:46:12;99357.19;;;3.64;55.94
38530;BME280;24301;54.332;48.386;2023-03-16T12:48:48;99351.16;;;3.65;55.72
38530;BME280;24301;54.332;48.386;2023-03-16T12:51:16;99344.13;;;3.59;56.62
38530;BME280;24301;54.332;48.386;2023-03-16T12:56:28;99343.38;;;3.67;56.79
38530;BME280;24301;54.332;48.386;2023-03-16T12:58:57;99353.84;;;3.68;56.97
38530;BME280;24301;54.332;48.386;2023-03-16T13:01:27;99347.69;;;3.66;57.38
38530;BME280;24301;54.332;48.386;2023-03-16T13:04:00;99357.19;;;3.63;58.06
38530;BME280;24301;54.332;48.386;2023-03-16T13:06:32;99346.69;;;3.58;58.13
38530;BME280;24301;54.332;48.386;2023-03-16T13:09:00;99343.97;;;3.52;57.85
38530;BME280;24301;54.332;48.386;2023-03-16T13:11:40;99363.13;;;3.55;58.85
38530;BME280;24301;54.332;48.386;2023-03-16T13:14:08;99359.53;;;3.50;58.88
38530;BME280;24301;54.332;48.386;2023-03-16T13:16:38;99371.69;;;3.51;59.19
38530;BME280;24301;54.332;48.386;2023-03-16T13:19:24;99351.78;;;3.52;59.44
38530;BME280;24301;54.332;48.386;2023-03-16T13:22:05;99362.28;;;3.56;58.67
38530;BME280;24301;54.332;48.386;2023-03-16T13:24:51;99337.06;;;3.54;58.50
38530;BME280;24301;54.332;48.386;2023-03-16T13:27:26;99350.13;;;3.57;59.29
38530;BME280;24301;54.332;48.386;2023-03-16T13:29:58;99337.03;;;3.51;59.32
38530;BME280;24301;54.332;48.386;2023-03-16T13:32:30;99317.25;;;3.59;58.91
38530;BME280;24301;54.332;48.386;2023-03-16T13:35:01;99336.41;;;3.64;58.58
38530;BME280;24301;54.332;48.386;2023-03-16T13:37:30;99341.75;;;3.70;58.33
38530;BME280;24301;54.332;48.386;2023-03-16T13:40:00;99314.09;;;3.76;58.42
38530;BME280;24301;54.332;48.386;2023-03-16T13:42:32;99313.97;;;3.69;58.24
38530;BME280;24301;54.332;48.386;2023-03-16T13:45:10;99320.09;;;3.71;58.72
38530;BME280;24301;54.332;48.386;2023-03-16T13:47:41;99327.69;;;3.62;59.19
38530;BME280;24301;54.332;48.386;2023-03-16T13:50:12;99321.56;;;3.58;59.39
38530;BME280;24301;54.332;48.386;2023-03-16T13:52:39;99317.28;;;3.62;59.73
38530;BME280;24301;54.332;48.386;2023-03-16T13:55:14;99313.09;;;3.69;59.30
38530;BME280;24301;54.332;48.386;2023-03-16T13:57:42;99314.09;;;3.76;59.32
38530;BME280;24301;54.332;48.386;2023-03-16T14:00:26;99309.00;;;3.82;59.00
38530;BME280;24301;54.332;48.386;2023-03-16T14:02:58;99302.09;;;3.84;58.80
38530;BME280;24301;54.332;48.386;2023-03-16T14:05:28;99315.13;;;3.85;59.07
38530;BME280;24301;54.332;48.386;2023-03-16T14:07:55;99336.69;;;3.80;59.19
38530;BME280;24301;54.332;48.386;2023-03-16T14:10:24;99327.03;;;3.72;59.88
38530;BME280;24301;54.332;48.386;2023-03-16T14:13:08;99334.47;;;3.54;60.93
38530;BME280;24301;54.332;48.386;2023-03-16T14:15:36;99324.78;;;3.45;61.04
38530;BME280;24301;54.332;48.386;2023-03-16T14:18:14;99327.41;;;3.47;61.80
38530;BME280;24301;54.332;48.386;2023-03-16T14:20:43;99338.66;;;3.45;61.80
38530;BME280;24301;54.332;48.386;2023-03-16T14:23:16;99334.31;;;3.44;61.64
38530;BME280;24301;54.332;48.386;2023-03-16T14:25:43;99329.06;;;3.43;61.62